sensor_id;sensor_type;location;lat;lon;timestamp;temperature;humidity
16929;DHT22;8581;47.334;11.190;2023-04-28T00:00:36;4.80;99.90
16929;DHT22;8581;47.334;11.190;2023-04-28T00:03:07;4.90;99.90
16929;DHT22;8581;47.334;11.190;2023-04-28T00:05:39;5.00;99.90
16929;DHT22;8581;47.334;11.190;2023-04-28T00:08:10;5.00;99.90
16929;DHT22;8581;47.334;11.190;2023-04-28T00:10:42;5.00;99.90
16929;DHT22;8581;47.334;11.190;2023-04-28T00:13:14;5.00;99.90
16929;DHT22;8581;47.334;11.190;2023-04-28T00:15:45;5.10;99.90
16929;DHT22;8581;47.334;11.190;2023-04-28T00:18:17;5.10;99.90
16929;DHT22;8581;47.334;11.190;2023-04-28T00:20:48;5.00;99.90
16929;DHT22;8581;47.334;11.190;2023-04-28T00:23:20;5.20;99.90
16929;DHT22;8581;47.334;11.190;2023-04-28T00:25:52;5.00;99.90
16929;DHT22;8581;47.334;11.190;2023-04-28T00:28:23;5.00;99.90
16929;DHT22;8581;47.334;11.190;2023-04-28T00:30:55;5.00;99.90
16929;DHT22;8581;47.334;11.190;2023-04-28T00:33:26;5.00;99.90
16929;DHT22;8581;47.334;11.190;2023-04-28T00:35:59;5.00;99.90
16929;DHT22;8581;47.334;11.190;2023-04-28T00:38:30;5.10;99.90
16929;DHT22;8581;47.334;11.190;2023-04-28T00:41:02;5.30;99.90
16929;DHT22;8581;47.334;11.190;2023-04-28T00:46:12;5.20;99.90
16929;DHT22;8581;47.334;11.190;2023-04-28T00:48:43;5.30;99.90
16929;DHT22;8581;47.334;11.190;2023-04-28T00:51:15;5.30;99.90
16929;DHT22;8581;47.334;11.190;2023-04-28T00:53:46;5.40;99.90
16929;DHT22;8581;47.334;11.190;2023-04-28T00:56:18;5.50;99.90
16929;DHT22;8581;47.334;11.190;2023-04-28T00:58:49;5.60;99.90
16929;DHT22;8581;47.334;11.190;2023-04-28T01:01:21;5.70;99.90
16929;DHT22;8581;47.334;11.190;2023-04-28T01:03:52;5.60;99.90
16929;DHT22;8581;47.334;11.190;2023-04-28T01:06:24;5.50;99.90
16929;DHT22;8581;47.334;11.190;2023-04-28T01:08:56;5.50;99.90
16929;DHT22;8581;47.334;11.190;2023-04-28T01:11:27;5.50;99.90
16929;DHT22;8581;47.334;11.190;2023-04-28T01:13:59;5.60;99.90
16929;DHT22;8581;47.334;11.190;2023-04-28T01:16:30;5.70;99.90
16929;DHT22;8581;47.334;11.190;2023-04-28T01:19:02;5.70;99.90
16929;DHT22;8581;47.334;11.190;2023-04-28T01:21:34;5.80;99.90
16929;DHT22;8581;47.334;11.190;2023-04-28T01:24:06;5.80;99.90
16929;DHT22;8581;47.334;11.190;2023-04-28T01:26:38;5.80;99.90
16929;DHT22;8581;47.334;11.190;2023-04-28T01:29:09;5.70;99.90
16929;DHT22;8581;47.334;11.190;2023-04-28T01:31:41;5.60;99.90
16929;DHT22;8581;47.334;11.190;2023-04-28T01:34:13;5.70;99.90
16929;DHT22;8581;47.334;11.190;2023-04-28T01:36:44;5.70;99.90
16929;DHT22;8581;47.334;11.190;2023-04-28T01:39:16;5.60;99.90
16929;DHT22;8581;47.334;11.190;2023-04-28T01:41:47;5.70;99.90
16929;DHT22;8581;47.334;11.190;2023-04-28T01:44:19;6.00;99.90
16929;DHT22;8581;47.334;11.190;2023-04-28T01:46:51;6.10;99.90
16929;DHT22;8581;47.334;11.190;2023-04-28T01:49:22;6.10;99.90
16929;DHT22;8581;47.334;11.190;2023-04-28T01:51:54;6.10;99.90
16929;DHT22;8581;47.334;11.190;2023-04-28T01:54:25;6.20;99.90
16929;DHT22;8581;47.334;11.190;2023-04-28T01:56:57;6.10;99.90
16929;DHT22;8581;47.334;11.190;2023-04-28T01:59:29;6.00;99.90
16929;DHT22;8581;47.334;11.190;2023-04-28T02:02:00;6.20;99.90
16929;DHT22;8581;47.334;11.190;2023-04-28T02:04:32;6.30;99.90
16929;DHT22;8581;47.334;11.190;2023-04-28T02:07:04;6.40;99.90
16929;DHT22;8581;47.334;11.190;2023-04-28T02:09:35;6.30;99.90
16929;DHT22;8581;47.334;11.190;2023-04-28T02:12:07;6.30;99.90
16929;DHT22;8581;47.334;11.190;2023-04-28T02:14:38;6.20;99.90
16929;DHT22;8581;47.334;11.190;2023-04-28T02:17:10;6.30;99.90
16929;DHT22;8581;47.334;11.190;2023-04-28T02:19:41;6.40;99.90
16929;DHT22;8581;47.334;11.190;2023-04-28T02:22:13;6.40;99.90
16929;DHT22;8581;47.334;11.190;2023-04-28T02:24:44;6.40;99.90
16929;DHT22;8581;47.334;11.190;2023-04-28T02:27:16;6.60;99.90
16929;DHT22;8581;47.334;11.190;2023-04-28T02:29:48;6.80;99.90
16929;DHT22;8581;47.334;11.190;2023-04-28T02:32:19;6.80;99.90
16929;DHT22;8581;47.334;11.190;2023-04-28T02:34:53;6.60;99.90
16929;DHT22;8581;47.334;11.190;2023-04-28T02:37:23;6.70;99.90
16929;DHT22;8581;47.334;11.190;2023-04-28T02:39:55;6.70;99.90
16929;DHT22;8581;47.334;11.190;2023-04-28T02:42:26;6.80;99.90
16929;DHT22;8581;47.334;11.190;2023-04-28T02:44:58;6.70;99.90
16929;DHT22;8581;47.334;11.190;2023-04-28T02:47:30;6.70;99.90
16929;DHT22;8581;47.334;11.190;2023-04-28T02:50:01;6.70;99.90
16929;DHT22;8581;47.334;11.190;2023-04-28T02:52:33;6.50;99.90
16929;DHT22;8581;47.334;11.190;2023-04-28T02:55:05;6.40;99.90
16929;DHT22;8581;47.334;11.190;2023-04-28T02:57:37;6.30;99.90
16929;DHT22;8581;47.334;11.190;2023-04-28T03:00:09;6.20;99.90
16929;DHT22;8581;47.334;11.190;2023-04-28T03:02:41;6.10;99.90
16929;DHT22;8581;47.334;11.190;2023-04-28T03:05:13;6.10;99.90
16929;DHT22;8581;47.334;11.190;2023-04-28T03:07:44;6.10;99.90
16929;DHT22;8581;47.334;11.190;2023-04-28T03:10:16;5.90;99.90
16929;DHT22;8581;47.334;11.190;2023-04-28T03:12:48;5.90;99.90
16929;DHT22;8581;47.334;11.190;2023-04-28T03:15:19;5.80;99.90
16929;DHT22;8581;47.334;11.190;2023-04-28T03:17:51;5.70;99.90
16929;DHT22;8581;47.334;11.190;2023-04-28T03:20:23;5.70;99.90
16929;DHT22;8581;47.334;11.190;2023-04-28T03:22:54;5.80;99.90
16929;DHT22;8581;47.334;11.190;2023-04-28T03:25:26;5.80;99.90
16929;DHT22;8581;47.334;11.190;2023-04-28T03:27:57;5.70;99.90
16929;DHT22;8581;47.334;11.190;2023-04-28T03:30:29;5.80;99.90
16929;DHT22;8581;47.334;11.190;2023-04-28T03:33:00;5.90;99.90
16929;DHT22;8581;47.334;11.190;2023-04-28T03:35:32;5.90;99.90
16929;DHT22;8581;47.334;11.190;2023-04-28T03:38:04;5.90;99.90
16929;DHT22;8581;47.334;11.190;2023-04-28T03:40:35;5.90;99.90
16929;DHT22;8581;47.334;11.190;2023-04-28T03:43:07;5.90;99.90
16929;DHT22;8581;47.334;11.190;2023-04-28T03:45:39;6.00;99.90
16929;DHT22;8581;47.334;11.190;2023-04-28T03:48:10;6.00;99.90
16929;DHT22;8581;47.334;11.190;2023-04-28T03:50:42;6.00;99.90
16929;DHT22;8581;47.334;11.190;2023-04-28T03:53:13;5.90;99.90
16929;DHT22;8581;47.334;11.190;2023-04-28T03:55:45;5.90;99.90
16929;DHT22;8581;47.334;11.190;2023-04-28T03:58:16;5.90;99.90
16929;DHT22;8581;47.334;11.190;2023-04-28T04:00:48;5.90;99.90
16929;DHT22;8581;47.334;11.190;2023-04-28T04:03:20;5.90;99.90
16929;DHT22;8581;47.334;11.190;2023-04-28T04:05:51;5.90;99.90
16929;DHT22;8581;47.334;11.190;2023-04-28T04:08:23;6.10;99.90
16929;DHT22;8581;47.334;11.190;2023-04-28T04:10:54;6.10;99.90
16929;DHT22;8581;47.334;11.190;2023-04-28T04:13:26;6.10;99.90
16929;DHT22;8581;47.334;11.190;2023-04-28T04:15:58;6.10;99.90
16929;DHT22;8581;47.334;11.190;2023-04-28T04:18:29;6.10;99.90
16929;DHT22;8581;47.334;11.190;2023-04-28T04:21:02;6.30;99.90
16929;DHT22;8581;47.334;11.190;2023-04-28T04:23:33;6.20;99.90
16929;DHT22;8581;47.334;11.190;2023-04-28T04:26:04;6.20;99.90
16929;DHT22;8581;47.334;11.190;2023-04-28T04:28:36;6.30;99.90
16929;DHT22;8581;47.334;11.190;2023-04-28T04:31:07;6.40;99.90
16929;DHT22;8581;47.334;11.190;2023-04-28T04:33:39;6.40;99.90
16929;DHT22;8581;47.334;11.190;2023-04-28T04:36:11;6.50;99.90
16929;DHT22;8581;47.334;11.190;2023-04-28T04:38:42;6.60;99.90
16929;DHT22;8581;47.334;11.190;2023-04-28T04:41:14;6.70;99.90
16929;DHT22;8581;47.334;11.190;2023-04-28T04:43:45;6.70;99.90
16929;DHT22;8581;47.334;11.190;2023-04-28T04:46:17;6.90;99.90
16929;DHT22;8581;47.334;11.190;2023-04-28T04:48:49;7.00;99.90
16929;DHT22;8581;47.334;11.190;2023-04-28T04:51:20;6.90;99.90
16929;DHT22;8581;47.334;11.190;2023-04-28T04:53:52;7.00;99.90
16929;DHT22;8581;47.334;11.190;2023-04-28T04:56:23;6.90;99.90
16929;DHT22;8581;47.334;11.190;2023-04-28T04:58:55;7.10;99.90
16929;DHT22;8581;47.334;11.190;2023-04-28T05:01:27;7.10;99.90
16929;DHT22;8581;47.334;11.190;2023-04-28T05:03:58;7.20;99.90
16929;DHT22;8581;47.334;11.190;2023-04-28T05:06:30;7.50;99.90
16929;DHT22;8581;47.334;11.190;2023-04-28T05:09:02;7.50;99.90
16929;DHT22;8581;47.334;11.190;2023-04-28T05:11:33;7.60;99.90
16929;DHT22;8581;47.334;11.190;2023-04-28T05:14:05;7.60;99.90
16929;DHT22;8581;47.334;11.190;2023-04-28T05:16:37;7.40;99.90
16929;DHT22;8581;47.334;11.190;2023-04-28T05:19:08;7.30;99.90
16929;DHT22;8581;47.334;11.190;2023-04-28T05:21:39;7.30;99.90
16929;DHT22;8581;47.334;11.190;2023-04-28T05:24:11;7.30;99.90
16929;DHT22;8581;47.334;11.190;2023-04-28T05:26:43;7.30;99.90
16929;DHT22;8581;47.334;11.190;2023-04-28T05:29:14;7.10;99.90
16929;DHT22;8581;47.334;11.190;2023-04-28T05:31:46;7.00;99.90
16929;DHT22;8581;47.334;11.190;2023-04-28T05:34:17;7.00;99.90
16929;DHT22;8581;47.334;11.190;2023-04-28T05:36:50;7.00;99.90
16929;DHT22;8581;47.334;11.190;2023-04-28T05:39:21;7.00;99.90
16929;DHT22;8581;47.334;11.190;2023-04-28T05:41:52;6.90;99.90
16929;DHT22;8581;47.334;11.190;2023-04-28T05:44:24;6.90;99.90
16929;DHT22;8581;47.334;11.190;2023-04-28T05:46:55;6.90;99.90
16929;DHT22;8581;47.334;11.190;2023-04-28T05:49:27;6.90;99.90
16929;DHT22;8581;47.334;11.190;2023-04-28T05:51:59;6.80;99.90
16929;DHT22;8581;47.334;11.190;2023-04-28T05:54:30;6.70;99.90
16929;DHT22;8581;47.334;11.190;2023-04-28T05:57:02;6.70;99.90
16929;DHT22;8581;47.334;11.190;2023-04-28T05:59:34;6.70;99.90
16929;DHT22;8581;47.334;11.190;2023-04-28T06:02:05;6.70;99.90
16929;DHT22;8581;47.334;11.190;2023-04-28T06:04:37;6.80;99.90
16929;DHT22;8581;47.334;11.190;2023-04-28T06:07:08;7.00;99.90
16929;DHT22;8581;47.334;11.190;2023-04-28T06:09:40;7.00;99.90
16929;DHT22;8581;47.334;11.190;2023-04-28T06:12:11;6.90;99.90
16929;DHT22;8581;47.334;11.190;2023-04-28T06:14:43;6.80;99.90
16929;DHT22;8581;47.334;11.190;2023-04-28T06:17:15;6.90;99.90
16929;DHT22;8581;47.334;11.190;2023-04-28T06:19:46;6.90;99.90
16929;DHT22;8581;47.334;11.190;2023-04-28T06:22:18;6.90;99.90
16929;DHT22;8581;47.334;11.190;2023-04-28T06:24:50;6.90;99.90
16929;DHT22;8581;47.334;11.190;2023-04-28T06:27:21;6.90;99.90
16929;DHT22;8581;47.334;11.190;2023-04-28T06:29:53;6.90;99.90
16929;DHT22;8581;47.334;11.190;2023-04-28T06:32:24;7.00;99.90
16929;DHT22;8581;47.334;11.190;2023-04-28T06:34:56;7.00;99.90
16929;DHT22;8581;47.334;11.190;2023-04-28T06:37:27;6.90;99.90
16929;DHT22;8581;47.334;11.190;2023-04-28T06:39:59;7.20;99.90
16929;DHT22;8581;47.334;11.190;2023-04-28T06:42:31;7.10;99.90
16929;DHT22;8581;47.334;11.190;2023-04-28T06:45:02;6.90;99.90
16929;DHT22;8581;47.334;11.190;2023-04-28T06:47:34;7.10;99.90
16929;DHT22;8581;47.334;11.190;2023-04-28T06:50:07;7.00;99.90
16929;DHT22;8581;47.334;11.190;2023-04-28T06:52:38;7.10;99.90
16929;DHT22;8581;47.334;11.190;2023-04-28T06:55:12;7.20;99.90
16929;DHT22;8581;47.334;11.190;2023-04-28T06:57:42;7.00;99.90
16929;DHT22;8581;47.334;11.190;2023-04-28T07:00:14;6.90;99.90
16929;DHT22;8581;47.334;11.190;2023-04-28T07:02:45;6.90;99.90
16929;DHT22;8581;47.334;11.190;2023-04-28T07:05:17;6.90;99.90
16929;DHT22;8581;47.334;11.190;2023-04-28T07:07:49;6.90;99.90
16929;DHT22;8581;47.334;11.190;2023-04-28T07:10:20;6.90;99.90
16929;DHT22;8581;47.334;11.190;2023-04-28T07:12:52;6.80;99.90
16929;DHT22;8581;47.334;11.190;2023-04-28T07:15:23;6.60;99.90
16929;DHT22;8581;47.334;11.190;2023-04-28T07:17:55;6.60;99.90
16929;DHT22;8581;47.334;11.190;2023-04-28T07:20:27;6.40;99.90
16929;DHT22;8581;47.334;11.190;2023-04-28T07:22:58;6.30;99.90
16929;DHT22;8581;47.334;11.190;2023-04-28T07:25:30;6.30;99.90
16929;DHT22;8581;47.334;11.190;2023-04-28T07:28:02;6.20;99.90
16929;DHT22;8581;47.334;11.190;2023-04-28T07:30:33;6.30;99.90
16929;DHT22;8581;47.334;11.190;2023-04-28T07:33:05;6.10;99.90
16929;DHT22;8581;47.334;11.190;2023-04-28T07:35:36;6.10;99.90
16929;DHT22;8581;47.334;11.190;2023-04-28T07:38:08;6.20;99.90
16929;DHT22;8581;47.334;11.190;2023-04-28T07:40:41;6.30;99.90
16929;DHT22;8581;47.334;11.190;2023-04-28T07:43:11;6.30;99.90
16929;DHT22;8581;47.334;11.190;2023-04-28T07:45:43;6.30;99.90
16929;DHT22;8581;47.334;11.190;2023-04-28T07:48:14;6.30;99.90
16929;DHT22;8581;47.334;11.190;2023-04-28T07:50:46;6.30;99.90
16929;DHT22;8581;47.334;11.190;2023-04-28T07:53:18;6.40;99.90
16929;DHT22;8581;47.334;11.190;2023-04-28T07:55:49;6.30;99.90
16929;DHT22;8581;47.334;11.190;2023-04-28T07:58:21;6.30;99.90
16929;DHT22;8581;47.334;11.190;2023-04-28T08:00:52;6.40;99.90
16929;DHT22;8581;47.334;11.190;2023-04-28T08:03:24;6.50;99.90
16929;DHT22;8581;47.334;11.190;2023-04-28T08:05:56;6.50;99.90
16929;DHT22;8581;47.334;11.190;2023-04-28T08:08:28;6.60;99.90
16929;DHT22;8581;47.334;11.190;2023-04-28T08:10:59;6.70;99.90
16929;DHT22;8581;47.334;11.190;2023-04-28T08:13:31;6.60;99.90
16929;DHT22;8581;47.334;11.190;2023-04-28T08:16:02;6.70;99.90
16929;DHT22;8581;47.334;11.190;2023-04-28T08:18:34;6.70;99.90
16929;DHT22;8581;47.334;11.190;2023-04-28T08:21:05;6.70;99.90
16929;DHT22;8581;47.334;11.190;2023-04-28T08:23:37;6.70;99.90
16929;DHT22;8581;47.334;11.190;2023-04-28T08:26:08;6.70;99.90
16929;DHT22;8581;47.334;11.190;2023-04-28T08:28:40;6.70;99.90
16929;DHT22;8581;47.334;11.190;2023-04-28T08:31:11;6.90;99.90
16929;DHT22;8581;47.334;11.190;2023-04-28T08:33:43;7.00;99.90
16929;DHT22;8581;47.334;11.190;2023-04-28T08:36:15;7.00;99.90
16929;DHT22;8581;47.334;11.190;2023-04-28T08:38:46;6.90;99.90
16929;DHT22;8581;47.334;11.190;2023-04-28T08:41:18;6.50;99.90
16929;DHT22;8581;47.334;11.190;2023-04-28T08:43:50;6.80;99.90
16929;DHT22;8581;47.334;11.190;2023-04-28T08:46:21;6.70;99.90
16929;DHT22;8581;47.334;11.190;2023-04-28T08:48:55;6.70;99.90
16929;DHT22;8581;47.334;11.190;2023-04-28T08:51:29;6.70;99.90
16929;DHT22;8581;47.334;11.190;2023-04-28T08:53:58;6.60;99.90
16929;DHT22;8581;47.334;11.190;2023-04-28T08:56:32;6.60;99.90
16929;DHT22;8581;47.334;11.190;2023-04-28T08:59:03;6.70;99.90
16929;DHT22;8581;47.334;11.190;2023-04-28T09:01:34;6.80;99.90
16929;DHT22;8581;47.334;11.190;2023-04-28T09:04:06;6.80;99.90
16929;DHT22;8581;47.334;11.190;2023-04-28T09:06:38;6.90;99.90
16929;DHT22;8581;47.334;11.190;2023-04-28T09:09:20;6.90;99.90
16929;DHT22;8581;47.334;11.190;2023-04-28T09:11:52;6.90;99.90
16929;DHT22;8581;47.334;11.190;2023-04-28T09:14:24;7.00;99.90
16929;DHT22;8581;47.334;11.190;2023-04-28T09:16:55;6.70;99.90
16929;DHT22;8581;47.334;11.190;2023-04-28T09:19:32;6.60;99.90
16929;DHT22;8581;47.334;11.190;2023-04-28T09:22:04;6.70;99.90
16929;DHT22;8581;47.334;11.190;2023-04-28T09:24:37;6.80;99.90
16929;DHT22;8581;47.334;11.190;2023-04-28T09:27:10;6.60;99.90
16929;DHT22;8581;47.334;11.190;2023-04-28T09:29:51;6.60;99.90
16929;DHT22;8581;47.334;11.190;2023-04-28T09:32:22;6.70;99.90
16929;DHT22;8581;47.334;11.190;2023-04-28T09:34:53;6.70;99.90
16929;DHT22;8581;47.334;11.190;2023-04-28T09:37:26;6.80;99.90
16929;DHT22;8581;47.334;11.190;2023-04-28T09:40:02;6.90;99.90
16929;DHT22;8581;47.334;11.190;2023-04-28T09:42:31;6.80;99.90
16929;DHT22;8581;47.334;11.190;2023-04-28T09:45:03;6.70;99.90
16929;DHT22;8581;47.334;11.190;2023-04-28T09:47:35;6.80;99.90
16929;DHT22;8581;47.334;11.190;2023-04-28T09:50:06;6.90;99.90
16929;DHT22;8581;47.334;11.190;2023-04-28T09:52:38;6.90;99.90
16929;DHT22;8581;47.334;11.190;2023-04-28T09:55:10;6.70;99.90
16929;DHT22;8581;47.334;11.190;2023-04-28T09:57:41;6.60;99.90
16929;DHT22;8581;47.334;11.190;2023-04-28T10:00:13;6.60;99.90
16929;DHT22;8581;47.334;11.190;2023-04-28T10:02:44;6.60;99.90
16929;DHT22;8581;47.334;11.190;2023-04-28T10:05:16;6.60;99.90
16929;DHT22;8581;47.334;11.190;2023-04-28T10:07:48;6.60;99.90
16929;DHT22;8581;47.334;11.190;2023-04-28T10:10:19;6.80;99.90
16929;DHT22;8581;47.334;11.190;2023-04-28T10:12:51;6.80;99.90
16929;DHT22;8581;47.334;11.190;2023-04-28T10:15:22;6.70;99.90
16929;DHT22;8581;47.334;11.190;2023-04-28T10:17:54;6.80;99.90
16929;DHT22;8581;47.334;11.190;2023-04-28T10:20:26;6.90;99.90
16929;DHT22;8581;47.334;11.190;2023-04-28T10:23:07;6.90;99.90
16929;DHT22;8581;47.334;11.190;2023-04-28T10:25:34;6.90;99.90
16929;DHT22;8581;47.334;11.190;2023-04-28T10:28:05;6.90;99.90
16929;DHT22;8581;47.334;11.190;2023-04-28T10:30:40;6.90;99.90
16929;DHT22;8581;47.334;11.190;2023-04-28T10:33:27;6.70;99.90
16929;DHT22;8581;47.334;11.190;2023-04-28T10:35:58;6.80;99.90
16929;DHT22;8581;47.334;11.190;2023-04-28T10:38:30;6.80;99.90
16929;DHT22;8581;47.334;11.190;2023-04-28T10:41:01;6.70;99.90
16929;DHT22;8581;47.334;11.190;2023-04-28T10:43:34;6.80;99.90
16929;DHT22;8581;47.334;11.190;2023-04-28T10:46:05;6.80;99.90
16929;DHT22;8581;47.334;11.190;2023-04-28T10:48:53;7.00;99.90
16929;DHT22;8581;47.334;11.190;2023-04-28T10:51:26;7.20;99.90
16929;DHT22;8581;47.334;11.190;2023-04-28T10:54:06;7.20;99.90
16929;DHT22;8581;47.334;11.190;2023-04-28T10:56:37;7.50;99.90
16929;DHT22;8581;47.334;11.190;2023-04-28T11:01:52;8.10;99.90
16929;DHT22;8581;47.334;11.190;2023-04-28T11:04:24;8.40;99.90
16929;DHT22;8581;47.334;11.190;2023-04-28T11:07:13;8.40;99.90
16929;DHT22;8581;47.334;11.190;2023-04-28T11:09:46;8.40;99.90
16929;DHT22;8581;47.334;11.190;2023-04-28T11:12:17;8.50;99.90
16929;DHT22;8581;47.334;11.190;2023-04-28T11:14:49;8.50;99.90
16929;DHT22;8581;47.334;11.190;2023-04-28T11:17:20;8.10;99.90
16929;DHT22;8581;47.334;11.190;2023-04-28T11:19:52;7.90;99.90
16929;DHT22;8581;47.334;11.190;2023-04-28T11:22:23;7.80;99.90
16929;DHT22;8581;47.334;11.190;2023-04-28T11:24:55;7.90;99.90
16929;DHT22;8581;47.334;11.190;2023-04-28T11:27:29;8.20;99.90
16929;DHT22;8581;47.334;11.190;2023-04-28T11:30:01;8.40;99.90
16929;DHT22;8581;47.334;11.190;2023-04-28T11:32:32;8.70;99.90
16929;DHT22;8581;47.334;11.190;2023-04-28T11:35:04;8.90;99.90
16929;DHT22;8581;47.334;11.190;2023-04-28T11:37:36;8.90;99.90
16929;DHT22;8581;47.334;11.190;2023-04-28T11:40:10;8.90;99.90
16929;DHT22;8581;47.334;11.190;2023-04-28T11:42:46;8.70;99.90
16929;DHT22;8581;47.334;11.190;2023-04-28T11:45:17;8.60;99.90
16929;DHT22;8581;47.334;11.190;2023-04-28T11:47:49;8.50;99.90
16929;DHT22;8581;47.334;11.190;2023-04-28T11:53:04;8.40;99.90
16929;DHT22;8581;47.334;11.190;2023-04-28T11:55:36;8.30;99.90
16929;DHT22;8581;47.334;11.190;2023-04-28T11:58:19;8.20;99.90
16929;DHT22;8581;47.334;11.190;2023-04-28T12:03:44;8.00;99.90
16929;DHT22;8581;47.334;11.190;2023-04-28T12:06:16;8.30;99.90
16929;DHT22;8581;47.334;11.190;2023-04-28T12:08:48;8.60;99.90
16929;DHT22;8581;47.334;11.190;2023-04-28T12:11:20;8.90;99.90
16929;DHT22;8581;47.334;11.190;2023-04-28T12:14:12;8.90;99.90
16929;DHT22;8581;47.334;11.190;2023-04-28T12:16:43;9.00;99.90
16929;DHT22;8581;47.334;11.190;2023-04-28T12:19:15;8.80;99.90
16929;DHT22;8581;47.334;11.190;2023-04-28T12:21:58;8.80;99.90
16929;DHT22;8581;47.334;11.190;2023-04-28T12:24:29;8.90;99.90
16929;DHT22;8581;47.334;11.190;2023-04-28T12:27:13;9.20;99.90
16929;DHT22;8581;47.334;11.190;2023-04-28T12:29:44;9.50;99.90
16929;DHT22;8581;47.334;11.190;2023-04-28T12:32:16;9.50;99.90
16929;DHT22;8581;47.334;11.190;2023-04-28T12:34:48;9.50;99.90
16929;DHT22;8581;47.334;11.190;2023-04-28T12:37:20;9.40;99.90
16929;DHT22;8581;47.334;11.190;2023-04-28T12:39:51;9.40;99.90
16929;DHT22;8581;47.334;11.190;2023-04-28T12:42:23;9.40;99.90
16929;DHT22;8581;47.334;11.190;2023-04-28T12:44:55;9.40;99.90
16929;DHT22;8581;47.334;11.190;2023-04-28T12:47:26;9.30;99.90
16929;DHT22;8581;47.334;11.190;2023-04-28T12:49:58;9.20;99.90
16929;DHT22;8581;47.334;11.190;2023-04-28T12:52:29;9.30;99.90
16929;DHT22;8581;47.334;11.190;2023-04-28T12:55:01;9.10;99.90
16929;DHT22;8581;47.334;11.190;2023-04-28T12:57:33;8.90;99.90
16929;DHT22;8581;47.334;11.190;2023-04-28T13:00:05;9.00;99.90
16929;DHT22;8581;47.334;11.190;2023-04-28T13:02:37;8.70;99.90
16929;DHT22;8581;47.334;11.190;2023-04-28T13:05:09;8.70;99.90
16929;DHT22;8581;47.334;11.190;2023-04-28T13:07:41;8.70;99.90
16929;DHT22;8581;47.334;11.190;2023-04-28T13:10:12;8.60;99.90
16929;DHT22;8581;47.334;11.190;2023-04-28T13:12:44;8.40;99.90
16929;DHT22;8581;47.334;11.190;2023-04-28T13:15:15;8.30;99.90
16929;DHT22;8581;47.334;11.190;2023-04-28T13:17:47;8.30;99.90
16929;DHT22;8581;47.334;11.190;2023-04-28T13:20:19;8.30;99.90
16929;DHT22;8581;47.334;11.190;2023-04-28T13:22:50;8.40;99.90
16929;DHT22;8581;47.334;11.190;2023-04-28T13:25:22;8.50;99.90
16929;DHT22;8581;47.334;11.190;2023-04-28T13:27:53;8.90;99.90
16929;DHT22;8581;47.334;11.190;2023-04-28T13:30:25;9.10;99.90
16929;DHT22;8581;47.334;11.190;2023-04-28T13:32:57;9.40;99.90
16929;DHT22;8581;47.334;11.190;2023-04-28T13:35:28;9.40;99.90
16929;DHT22;8581;47.334;11.190;2023-04-28T13:38:00;9.50;99.90
16929;DHT22;8581;47.334;11.190;2023-04-28T13:40:32;9.70;99.90
16929;DHT22;8581;47.334;11.190;2023-04-28T13:43:03;9.90;99.90
16929;DHT22;8581;47.334;11.190;2023-04-28T13:45:35;10.00;99.90
16929;DHT22;8581;47.334;11.190;2023-04-28T13:48:06;10.20;99.90
16929;DHT22;8581;47.334;11.190;2023-04-28T13:50:40;10.20;99.90
16929;DHT22;8581;47.334;11.190;2023-04-28T13:53:12;10.20;99.90
16929;DHT22;8581;47.334;11.190;2023-04-28T13:55:44;10.10;99.90
16929;DHT22;8581;47.334;11.190;2023-04-28T13:58:15;10.00;99.90
16929;DHT22;8581;47.334;11.190;2023-04-28T14:00:47;9.80;99.90
16929;DHT22;8581;47.334;11.190;2023-04-28T14:03:19;9.90;99.90
16929;DHT22;8581;47.334;11.190;2023-04-28T14:05:50;10.20;99.90
16929;DHT22;8581;47.334;11.190;2023-04-28T14:08:22;10.20;99.90
16929;DHT22;8581;47.334;11.190;2023-04-28T14:10:53;10.20;99.90
16929;DHT22;8581;47.334;11.190;2023-04-28T14:13:25;10.20;99.90
16929;DHT22;8581;47.334;11.190;2023-04-28T14:15:57;10.10;99.90
16929;DHT22;8581;47.334;11.190;2023-04-28T14:18:28;10.10;99.90
16929;DHT22;8581;47.334;11.190;2023-04-28T14:21:00;10.00;99.90
16929;DHT22;8581;47.334;11.190;2023-04-28T14:23:32;10.00;99.90
16929;DHT22;8581;47.334;11.190;2023-04-28T14:26:04;10.10;99.90
16929;DHT22;8581;47.334;11.190;2023-04-28T14:28:35;10.00;99.90
16929;DHT22;8581;47.334;11.190;2023-04-28T14:31:07;10.50;99.90
16929;DHT22;8581;47.334;11.190;2023-04-28T14:33:39;11.20;99.90
16929;DHT22;8581;47.334;11.190;2023-04-28T14:36:10;11.30;99.90
16929;DHT22;8581;47.334;11.190;2023-04-28T14:38:42;11.30;99.90
16929;DHT22;8581;47.334;11.190;2023-04-28T14:41:13;11.30;99.90
16929;DHT22;8581;47.334;11.190;2023-04-28T14:43:45;11.40;99.90
16929;DHT22;8581;47.334;11.190;2023-04-28T14:46:17;11.20;99.90
16929;DHT22;8581;47.334;11.190;2023-04-28T14:48:49;10.70;99.90
16929;DHT22;8581;47.334;11.190;2023-04-28T14:51:20;10.50;99.90
16929;DHT22;8581;47.334;11.190;2023-04-28T14:53:52;10.30;99.90
16929;DHT22;8581;47.334;11.190;2023-04-28T14:56:23;10.00;99.90
16929;DHT22;8581;47.334;11.190;2023-04-28T14:58:56;10.00;99.90
16929;DHT22;8581;47.334;11.190;2023-04-28T15:01:27;10.00;99.90
16929;DHT22;8581;47.334;11.190;2023-04-28T15:03:59;10.10;99.90
16929;DHT22;8581;47.334;11.190;2023-04-28T15:06:30;10.30;99.90
16929;DHT22;8581;47.334;11.190;2023-04-28T15:09:02;10.20;99.90
16929;DHT22;8581;47.334;11.190;2023-04-28T15:11:34;10.20;99.90
16929;DHT22;8581;47.334;11.190;2023-04-28T15:14:05;10.30;99.90
16929;DHT22;8581;47.334;11.190;2023-04-28T15:16:37;10.20;99.90
16929;DHT22;8581;47.334;11.190;2023-04-28T15:19:08;10.10;99.90
16929;DHT22;8581;47.334;11.190;2023-04-28T15:21:40;9.90;99.90
16929;DHT22;8581;47.334;11.190;2023-04-28T15:24:13;9.90;99.90
16929;DHT22;8581;47.334;11.190;2023-04-28T15:26:43;10.00;99.90
16929;DHT22;8581;47.334;11.190;2023-04-28T15:29:15;10.00;99.90
16929;DHT22;8581;47.334;11.190;2023-04-28T15:31:46;10.00;99.90
16929;DHT22;8581;47.334;11.190;2023-04-28T15:34:18;10.10;99.90
16929;DHT22;8581;47.334;11.190;2023-04-28T15:36:50;10.30;99.90
16929;DHT22;8581;47.334;11.190;2023-04-28T15:39:21;10.30;99.90
16929;DHT22;8581;47.334;11.190;2023-04-28T15:41:53;10.40;99.90
16929;DHT22;8581;47.334;11.190;2023-04-28T15:44:25;10.40;99.90
16929;DHT22;8581;47.334;11.190;2023-04-28T15:46:56;10.40;99.90
16929;DHT22;8581;47.334;11.190;2023-04-28T15:49:28;10.30;99.90
16929;DHT22;8581;47.334;11.190;2023-04-28T15:51:59;10.40;99.90
16929;DHT22;8581;47.334;11.190;2023-04-28T15:54:31;10.50;99.90
16929;DHT22;8581;47.334;11.190;2023-04-28T15:57:03;10.30;99.90
16929;DHT22;8581;47.334;11.190;2023-04-28T15:59:34;10.20;99.90
16929;DHT22;8581;47.334;11.190;2023-04-28T16:02:06;10.20;99.90
16929;DHT22;8581;47.334;11.190;2023-04-28T16:04:38;10.40;99.90
16929;DHT22;8581;47.334;11.190;2023-04-28T16:07:09;10.40;99.90
16929;DHT22;8581;47.334;11.190;2023-04-28T16:09:41;10.60;99.90
16929;DHT22;8581;47.334;11.190;2023-04-28T16:12:12;10.60;99.90
16929;DHT22;8581;47.334;11.190;2023-04-28T16:14:47;10.20;99.90
16929;DHT22;8581;47.334;11.190;2023-04-28T16:17:16;10.00;99.90
16929;DHT22;8581;47.334;11.190;2023-04-28T16:19:48;10.00;99.90
16929;DHT22;8581;47.334;11.190;2023-04-28T16:22:19;10.00;99.90
16929;DHT22;8581;47.334;11.190;2023-04-28T16:24:50;9.90;99.90